createdAt,value
2023-05-19T00:00:17.006Z,95280.00
2023-05-19T00:01:17.037Z,95280.00
2023-05-19T00:02:17.083Z,95278.00
2023-05-19T00:03:17.158Z,95276.00
2023-05-19T00:04:17.068Z,95278.00
2023-05-19T00:05:17.073Z,95272.00
2023-05-19T00:06:17.073Z,95272.00
2023-05-19T00:07:17.031Z,95272.00
2023-05-19T00:08:17.102Z,95272.00
2023-05-19T00:09:17.075Z,95268.00
2023-05-19T00:10:17.106Z,95270.00
2023-05-19T00:11:17.097Z,95270.00
2023-05-19T00:12:17.116Z,95270.00
2023-05-19T00:13:17.110Z,95266.00
2023-05-19T00:14:17.171Z,95270.00
2023-05-19T00:15:17.178Z,95270.00
2023-05-19T00:16:17.237Z,95270.00
2023-05-19T00:17:17.189Z,95270.00
2023-05-19T00:18:17.207Z,95270.00
2023-05-19T00:19:17.334Z,95272.00
2023-05-19T00:20:17.231Z,95272.00
2023-05-19T00:21:17.243Z,95276.00
2023-05-19T00:22:17.285Z,95272.00
2023-05-19T00:23:17.275Z,95274.00
2023-05-19T00:24:17.249Z,95276.00
2023-05-19T00:25:17.350Z,95274.00
2023-05-19T00:26:17.333Z,95276.00
2023-05-19T00:27:17.329Z,95276.00
2023-05-19T00:28:17.350Z,95278.00
2023-05-19T00:29:17.338Z,95278.00
2023-05-19T00:30:17.353Z,95274.00
2023-05-19T00:31:17.504Z,95276.00
2023-05-19T00:32:17.401Z,95272.00
2023-05-19T00:33:17.376Z,95274.00
2023-05-19T00:34:17.398Z,95274.00
2023-05-19T00:35:17.401Z,95278.00
2023-05-19T00:36:17.543Z,95276.00
2023-05-19T00:37:17.385Z,95278.00
2023-05-19T00:38:17.397Z,95276.00
2023-05-19T00:39:17.400Z,95276.00
2023-05-19T00:40:17.449Z,95276.00
2023-05-19T00:41:17.422Z,95272.00
2023-05-19T00:42:17.435Z,95274.00
2023-05-19T00:43:17.390Z,95272.00
2023-05-19T00:44:17.358Z,95270.00
2023-05-19T00:45:17.358Z,95272.00
2023-05-19T00:46:17.425Z,95270.00
2023-05-19T00:47:17.379Z,95272.00
2023-05-19T00:48:17.333Z,95268.00
2023-05-19T00:49:17.365Z,95268.00
2023-05-19T00:50:17.377Z,95266.00
2023-05-19T00:51:17.406Z,95264.00
2023-05-19T00:52:17.363Z,95266.00
2023-05-19T00:53:17.349Z,95264.00
2023-05-19T00:54:17.362Z,95264.00
2023-05-19T00:55:17.370Z,95264.00
2023-05-19T00:56:17.501Z,95262.00
2023-05-19T00:57:17.409Z,95262.00
2023-05-19T00:58:17.386Z,95260.00
2023-05-19T00:59:17.395Z,95258.00
2023-05-19T01:00:17.406Z,95258.00
2023-05-19T01:01:17.584Z,95258.00
2023-05-19T01:02:17.386Z,95256.00
2023-05-19T01:03:17.557Z,95260.00
2023-05-19T01:04:17.407Z,95260.00
2023-05-19T01:05:17.481Z,95258.00
2023-05-19T01:06:17.415Z,95260.00
2023-05-19T01:07:17.463Z,95262.00
2023-05-19T01:08:17.431Z,95262.00
2023-05-19T01:09:17.429Z,95262.00
2023-05-19T01:10:17.417Z,95262.00
2023-05-19T01:11:17.424Z,95262.00
2023-05-19T01:12:17.448Z,95258.00
2023-05-19T01:13:17.528Z,95260.00
2023-05-19T01:14:17.511Z,95260.00
2023-05-19T01:15:17.536Z,95256.00
2023-05-19T01:16:17.557Z,95256.00
2023-05-19T01:17:17.537Z,95256.00
2023-05-19T01:18:17.564Z,95260.00
2023-05-19T01:19:17.680Z,95258.00
2023-05-19T01:20:17.589Z,95258.00
2023-05-19T01:21:17.597Z,95258.00
2023-05-19T01:22:17.602Z,95258.00
2023-05-19T01:23:17.619Z,95256.00
2023-05-19T01:24:18.501Z,95256.00
2023-05-19T01:25:17.615Z,95256.00
2023-05-19T01:26:17.592Z,95256.00
2023-05-19T01:27:17.608Z,95256.00
2023-05-19T01:28:17.602Z,95258.00
2023-05-19T01:29:17.624Z,95258.00
2023-05-19T01:30:17.604Z,95260.00
2023-05-19T01:31:17.633Z,95256.00
2023-05-19T01:32:17.641Z,95258.00
2023-05-19T01:33:17.581Z,95258.00
2023-05-19T01:34:17.664Z,95256.00
2023-05-19T01:35:17.625Z,95258.00
2023-05-19T01:36:17.623Z,95258.00
2023-05-19T01:37:17.626Z,95260.00
2023-05-19T01:38:17.648Z,95258.00
2023-05-19T01:39:17.640Z,95258.00
2023-05-19T01:40:17.626Z,95256.00
2023-05-19T01:41:17.639Z,95256.00
2023-05-19T01:42:17.607Z,95256.00
2023-05-19T01:43:17.649Z,95258.00
2023-05-19T01:44:17.612Z,95258.00
2023-05-19T01:45:17.652Z,95258.00
2023-05-19T01:46:17.693Z,95254.00
2023-05-19T01:47:17.606Z,95254.00
2023-05-19T01:48:17.653Z,95256.00
2023-05-19T01:49:17.691Z,95258.00
2023-05-19T01:50:17.653Z,95254.00
2023-05-19T01:51:17.673Z,95260.00
2023-05-19T01:52:17.648Z,95256.00
2023-05-19T01:53:17.696Z,95256.00
2023-05-19T01:54:17.635Z,95258.00
2023-05-19T01:55:17.655Z,95260.00
2023-05-19T01:56:17.704Z,95258.00
2023-05-19T01:57:17.648Z,95256.00
2023-05-19T01:58:17.647Z,95254.00
2023-05-19T01:59:17.651Z,95256.00
2023-05-19T02:00:19.295Z,95260.00
2023-05-19T02:01:17.685Z,95258.00
2023-05-19T02:02:17.638Z,95258.00
2023-05-19T02:03:17.616Z,95258.00
2023-05-19T02:04:17.660Z,95260.00
2023-05-19T02:05:17.659Z,95260.00
2023-05-19T02:06:17.600Z,95258.00
2023-05-19T02:07:17.690Z,95262.00
2023-05-19T02:08:17.581Z,95262.00
2023-05-19T02:09:17.583Z,95260.00
2023-05-19T02:10:17.603Z,95264.00
2023-05-19T02:11:17.568Z,95262.00
2023-05-19T02:12:17.583Z,95264.00
2023-05-19T02:13:17.516Z,95262.00
2023-05-19T02:14:17.510Z,95264.00
2023-05-19T02:15:17.529Z,95266.00
2023-05-19T02:16:17.613Z,95266.00
2023-05-19T02:17:17.535Z,95268.00
2023-05-19T02:18:17.549Z,95270.00
2023-05-19T02:19:17.549Z,95270.00
2023-05-19T02:20:17.486Z,95268.00
2023-05-19T02:21:17.512Z,95270.00
2023-05-19T02:22:17.500Z,95268.00
2023-05-19T02:23:17.485Z,95272.00
2023-05-19T02:24:17.448Z,95268.00
2023-05-19T02:25:17.460Z,95270.00
2023-05-19T02:26:17.556Z,95268.00
2023-05-19T02:27:17.443Z,95270.00
2023-05-19T02:28:17.412Z,95266.00
2023-05-19T02:29:17.392Z,95268.00
2023-05-19T02:30:17.452Z,95268.00
2023-05-19T02:31:17.510Z,95268.00
2023-05-19T02:32:17.437Z,95268.00
2023-05-19T02:33:17.372Z,95268.00
2023-05-19T02:34:17.345Z,95272.00
2023-05-19T02:35:17.405Z,95270.00
2023-05-19T02:36:17.391Z,95268.00
2023-05-19T02:37:17.364Z,95268.00
2023-05-19T02:38:17.361Z,95270.00
2023-05-19T02:39:17.370Z,95266.00
2023-05-19T02:40:17.314Z,95268.00
2023-05-19T02:41:17.360Z,95266.00
2023-05-19T02:42:17.341Z,95266.00
2023-05-19T02:43:17.354Z,95266.00
2023-05-19T02:44:17.365Z,95266.00
2023-05-19T02:45:17.360Z,95266.00
2023-05-19T02:46:17.319Z,95264.00
2023-05-19T02:47:17.266Z,95262.00
2023-05-19T02:48:17.265Z,95264.00
2023-05-19T02:49:17.284Z,95266.00
2023-05-19T02:50:17.307Z,95266.00
2023-05-19T02:51:17.301Z,95264.00
2023-05-19T02:52:17.252Z,95264.00
2023-05-19T02:53:17.239Z,95260.00
2023-05-19T02:54:17.220Z,95260.00
2023-05-19T02:55:17.378Z,95258.00
2023-05-19T02:56:17.224Z,95258.00
2023-05-19T02:57:17.195Z,95258.00
2023-05-19T02:58:17.280Z,95258.00
2023-05-19T02:59:17.205Z,95256.00
2023-05-19T03:00:17.194Z,95258.00
2023-05-19T03:01:17.230Z,95256.00
2023-05-19T03:02:17.168Z,95258.00
2023-05-19T03:03:17.221Z,95254.00
2023-05-19T03:04:17.137Z,95254.00
2023-05-19T03:05:17.130Z,95252.00
2023-05-19T03:06:17.555Z,95252.00
2023-05-19T03:07:17.142Z,95252.00
2023-05-19T03:08:17.149Z,95252.00
2023-05-19T03:09:17.113Z,95250.00
2023-05-19T03:10:17.116Z,95246.00
2023-05-19T03:11:17.131Z,95246.00
2023-05-19T03:12:17.126Z,95246.00
2023-05-19T03:13:17.093Z,95246.00
2023-05-19T03:14:17.096Z,95246.00
2023-05-19T03:15:17.092Z,95248.00
2023-05-19T03:16:17.128Z,95248.00
2023-05-19T03:17:17.096Z,95248.00
2023-05-19T03:18:17.100Z,95246.00
2023-05-19T03:19:17.108Z,95246.00
2023-05-19T03:20:17.056Z,95246.00
2023-05-19T03:21:17.023Z,95244.00
2023-05-19T03:22:17.049Z,95246.00
2023-05-19T03:23:17.003Z,95246.00
2023-05-19T03:24:17.013Z,95246.00
2023-05-19T03:25:17.073Z,95244.00
2023-05-19T03:26:17.010Z,95244.00
2023-05-19T03:27:17.004Z,95242.00
2023-05-19T03:28:17.072Z,95244.00
2023-05-19T03:29:16.993Z,95244.00
2023-05-19T03:30:16.994Z,95244.00
2023-05-19T03:31:16.955Z,95246.00
2023-05-19T03:32:17.010Z,95246.00
2023-05-19T03:33:17.109Z,95246.00
2023-05-19T03:34:16.941Z,95246.00
2023-05-19T03:35:16.922Z,95246.00
2023-05-19T03:36:16.945Z,95246.00
2023-05-19T03:37:16.986Z,95246.00
2023-05-19T03:38:16.900Z,95248.00
2023-05-19T03:39:16.912Z,95246.00
2023-05-19T03:40:16.945Z,95246.00
2023-05-19T03:41:16.954Z,95244.00
2023-05-19T03:42:16.887Z,95244.00
2023-05-19T03:43:16.874Z,95246.00
2023-05-19T03:44:16.896Z,95244.00
2023-05-19T03:45:16.909Z,95244.00
2023-05-19T03:46:16.877Z,95244.00
2023-05-19T03:47:16.886Z,95244.00
2023-05-19T03:48:19.052Z,95244.00
2023-05-19T03:49:16.904Z,95244.00
2023-05-19T03:50:16.890Z,95244.00
2023-05-19T03:51:16.844Z,95244.00
2023-05-19T03:52:16.849Z,95244.00
2023-05-19T03:53:16.872Z,95244.00
2023-05-19T03:54:16.827Z,95246.00
2023-05-19T03:55:16.785Z,95246.00
2023-05-19T03:56:16.830Z,95248.00
2023-05-19T03:57:16.797Z,95248.00
2023-05-19T03:58:16.807Z,95250.00
2023-05-19T03:59:16.862Z,95254.00
2023-05-19T04:00:16.797Z,95254.00
2023-05-19T04:01:16.770Z,95256.00
2023-05-19T04:02:17.064Z,95256.00
2023-05-19T04:03:16.901Z,95258.00
2023-05-19T04:04:16.798Z,95258.00
2023-05-19T04:05:16.722Z,95252.00
2023-05-19T04:06:16.744Z,95250.00
2023-05-19T04:07:16.759Z,95250.00
2023-05-19T04:08:16.748Z,95248.00
2023-05-19T04:09:16.728Z,95248.00
2023-05-19T04:10:16.731Z,95246.00
2023-05-19T04:11:16.658Z,95248.00
2023-05-19T04:12:16.668Z,95246.00
2023-05-19T04:13:16.701Z,95246.00
2023-05-19T04:14:16.684Z,95246.00
2023-05-19T04:15:16.651Z,95242.00
2023-05-19T04:16:17.106Z,95244.00
2023-05-19T04:17:16.621Z,95246.00
2023-05-19T04:18:16.666Z,95244.00
2023-05-19T04:19:16.650Z,95246.00
2023-05-19T04:20:16.623Z,95246.00
2023-05-19T04:21:16.664Z,95248.00
2023-05-19T04:22:16.603Z,95248.00
2023-05-19T04:23:16.610Z,95252.00
2023-05-19T04:25:07.010Z,95248.00
2023-05-19T04:26:07.045Z,95254.00
2023-05-19T04:27:06.933Z,95254.00
2023-05-19T04:28:06.923Z,95254.00
2023-05-19T04:29:06.933Z,95254.00
2023-05-19T04:30:06.938Z,95258.00
2023-05-19T04:31:07.020Z,95256.00
2023-05-19T04:32:06.892Z,95260.00
2023-05-19T04:33:06.988Z,95260.00
2023-05-19T04:34:06.871Z,95256.00
2023-05-19T04:35:06.917Z,95256.00
2023-05-19T04:36:06.903Z,95256.00
2023-05-19T04:37:06.871Z,95256.00
2023-05-19T04:38:06.872Z,95260.00
2023-05-19T04:39:06.819Z,95262.00
2023-05-19T04:40:06.830Z,95262.00
2023-05-19T04:41:07.135Z,95262.00
2023-05-19T04:42:06.838Z,95262.00
2023-05-19T04:43:06.807Z,95262.00
2023-05-19T04:44:06.763Z,95262.00
2023-05-19T04:45:06.781Z,95264.00
2023-05-19T04:46:07.198Z,95264.00
2023-05-19T04:47:06.803Z,95264.00
2023-05-19T04:48:06.827Z,95262.00
2023-05-19T04:49:06.782Z,95258.00
2023-05-19T04:50:06.768Z,95258.00
2023-05-19T04:51:07.162Z,95258.00
2023-05-19T04:52:06.774Z,95256.00
2023-05-19T04:53:06.729Z,95256.00
2023-05-19T04:54:06.734Z,95254.00
2023-05-19T04:55:06.760Z,95258.00
2023-05-19T04:56:07.161Z,95262.00
2023-05-19T04:57:06.673Z,95262.00
2023-05-19T04:58:06.715Z,95260.00
2023-05-19T04:59:06.696Z,95258.00
2023-05-19T05:00:06.686Z,95256.00
2023-05-19T05:01:07.179Z,95252.00
2023-05-19T05:02:06.736Z,95254.00
2023-05-19T05:03:06.700Z,95250.00
2023-05-19T05:04:06.736Z,95252.00
2023-05-19T05:05:06.650Z,95256.00
2023-05-19T05:06:07.179Z,95260.00
2023-05-19T05:07:06.614Z,95260.00
2023-05-19T05:08:06.635Z,95260.00
2023-05-19T05:09:06.641Z,95258.00
2023-05-19T05:10:06.641Z,95258.00
2023-05-19T05:11:06.645Z,95254.00
2023-05-19T05:12:06.613Z,95254.00
2023-05-19T05:13:06.627Z,95252.00
2023-05-19T05:14:06.626Z,95254.00
2023-05-19T05:15:06.571Z,95254.00
2023-05-19T05:16:06.672Z,95256.00
2023-05-19T05:17:06.583Z,95262.00
2023-05-19T05:18:06.596Z,95256.00
2023-05-19T05:19:06.618Z,95258.00
2023-05-19T05:20:06.582Z,95256.00
2023-05-19T05:21:06.550Z,95250.00
2023-05-19T05:22:06.562Z,95252.00
2023-05-19T05:23:06.518Z,95250.00
2023-05-19T05:24:06.489Z,95250.00
2023-05-19T05:25:06.497Z,95252.00
2023-05-19T05:26:06.495Z,95248.00
2023-05-19T05:27:06.449Z,95248.00
2023-05-19T05:28:06.514Z,95248.00
2023-05-19T05:29:06.526Z,95248.00
2023-05-19T05:30:06.467Z,95246.00
2023-05-19T05:31:06.656Z,95248.00
2023-05-19T05:32:06.470Z,95250.00
2023-05-19T05:33:06.558Z,95248.00
2023-05-19T05:34:06.454Z,95248.00
2023-05-19T05:35:06.406Z,95248.00
2023-05-19T05:36:06.670Z,95246.00
2023-05-19T05:37:06.372Z,95246.00
2023-05-19T05:38:06.413Z,95244.00
2023-05-19T05:39:06.392Z,95244.00
2023-05-19T05:40:06.379Z,95242.00
2023-05-19T05:41:06.715Z,95244.00
2023-05-19T05:42:06.348Z,95246.00
2023-05-19T05:43:06.351Z,95244.00
2023-05-19T05:44:06.369Z,95242.00
2023-05-19T05:45:06.313Z,95244.00
2023-05-19T05:46:06.394Z,95246.00
2023-05-19T05:47:06.302Z,95244.00
2023-05-19T05:48:06.340Z,95246.00
2023-05-19T05:49:06.302Z,95244.00
2023-05-19T05:50:06.295Z,95242.00
2023-05-19T05:51:06.293Z,95244.00
2023-05-19T05:52:06.945Z,95242.00
2023-05-19T05:53:06.265Z,95242.00
2023-05-19T05:54:06.290Z,95239.00
2023-05-19T05:55:06.303Z,95241.00
2023-05-19T05:56:06.706Z,95241.00
2023-05-19T05:57:06.236Z,95239.00
2023-05-19T05:58:06.231Z,95237.00
2023-05-19T05:59:06.233Z,95237.00
2023-05-19T06:00:06.219Z,95239.00
2023-05-19T06:01:06.225Z,95239.00
2023-05-19T06:02:06.332Z,95237.00
2023-05-19T06:03:06.399Z,95239.00
2023-05-19T06:04:06.178Z,95239.00
2023-05-19T06:05:06.219Z,95237.00
2023-05-19T06:06:06.207Z,95237.00
2023-05-19T06:07:06.172Z,95235.00
2023-05-19T06:08:06.189Z,95237.00
2023-05-19T06:09:06.150Z,95237.00
2023-05-19T06:10:06.141Z,95235.00
2023-05-19T06:11:06.136Z,95237.00
2023-05-19T06:12:06.190Z,95235.00
2023-05-19T06:13:06.166Z,95235.00
2023-05-19T06:14:06.115Z,95235.00
2023-05-19T06:15:06.097Z,95235.00
2023-05-19T06:16:06.148Z,95233.00
2023-05-19T06:17:06.141Z,95233.00
2023-05-19T06:18:06.124Z,95237.00
2023-05-19T06:19:06.133Z,95237.00
2023-05-19T06:20:06.078Z,95241.00
2023-05-19T06:21:06.057Z,95239.00
2023-05-19T06:22:06.063Z,95239.00
2023-05-19T06:23:06.083Z,95239.00
2023-05-19T06:24:06.038Z,95242.00
2023-05-19T06:25:06.058Z,95239.00
2023-05-19T06:26:06.039Z,95242.00
2023-05-19T06:27:06.046Z,95239.00
2023-05-19T06:28:06.026Z,95244.00
2023-05-19T06:29:06.010Z,95242.00
2023-05-19T06:30:05.964Z,95241.00
2023-05-19T06:31:06.106Z,95237.00
2023-05-19T06:32:05.967Z,95241.00
2023-05-19T06:33:06.014Z,95239.00
2023-05-19T06:34:05.994Z,95235.00
2023-05-19T06:35:05.998Z,95237.00
2023-05-19T06:36:05.998Z,95233.00
2023-05-19T06:37:06.201Z,95231.00
2023-05-19T06:38:05.913Z,95233.00
2023-05-19T06:39:05.898Z,95235.00
2023-05-19T06:40:05.950Z,95231.00
2023-05-19T06:41:05.946Z,95235.00
2023-05-19T06:42:06.216Z,95231.00
2023-05-19T06:43:05.906Z,95233.00
2023-05-19T06:44:05.890Z,95231.00
2023-05-19T06:45:05.877Z,95233.00
2023-05-19T06:46:05.888Z,95231.00
2023-05-19T06:47:06.266Z,95233.00
2023-05-19T06:48:05.925Z,95233.00
2023-05-19T06:49:05.898Z,95235.00
2023-05-19T06:50:05.885Z,95231.00
2023-05-19T06:51:05.856Z,95233.00
2023-05-19T06:52:05.869Z,95231.00
2023-05-19T06:53:05.821Z,95231.00
2023-05-19T06:54:05.794Z,95229.00
2023-05-19T06:55:05.815Z,95231.00
2023-05-19T06:56:05.803Z,95229.00
2023-05-19T06:57:05.803Z,95227.00
2023-05-19T06:58:05.822Z,95227.00
2023-05-19T06:59:05.804Z,95229.00
2023-05-19T07:00:05.818Z,95225.00
2023-05-19T07:01:05.807Z,95225.00
2023-05-19T07:02:06.259Z,95223.00
2023-05-19T07:03:05.847Z,95223.00
2023-05-19T07:04:05.939Z,95223.00
2023-05-19T07:05:05.863Z,95223.00
2023-05-19T07:06:07.888Z,95221.00
2023-05-19T07:07:06.190Z,95221.00
2023-05-19T07:08:06.013Z,95223.00
2023-05-19T07:09:06.057Z,95223.00
2023-05-19T07:10:06.107Z,95223.00
2023-05-19T07:11:06.211Z,95223.00
2023-05-19T07:12:06.199Z,95223.00
2023-05-19T07:13:06.249Z,95225.00
2023-05-19T07:14:06.263Z,95225.00
2023-05-19T07:15:06.270Z,95227.00
2023-05-19T07:16:06.334Z,95223.00
2023-05-19T07:17:06.361Z,95225.00
2023-05-19T07:18:06.475Z,95223.00
2023-05-19T07:19:06.472Z,95225.00
2023-05-19T07:20:06.505Z,95221.00
2023-05-19T07:21:06.536Z,95223.00
2023-05-19T07:22:06.689Z,95223.00
2023-05-19T07:23:06.605Z,95223.00
2023-05-19T07:24:06.597Z,95225.00
2023-05-19T07:25:06.666Z,95223.00
2023-05-19T07:26:06.694Z,95219.00
2023-05-19T07:27:06.688Z,95221.00
2023-05-19T07:28:06.731Z,95217.00
2023-05-19T07:29:06.807Z,95217.00
2023-05-19T07:30:06.844Z,95217.00
2023-05-19T07:31:06.951Z,95215.00
2023-05-19T07:32:07.018Z,95211.00
2023-05-19T07:33:07.135Z,95209.00
2023-05-19T07:34:07.052Z,95207.00
2023-05-19T07:35:07.094Z,95207.00
2023-05-19T07:36:07.128Z,95207.00
2023-05-19T07:37:07.214Z,95205.00
2023-05-19T07:38:07.234Z,95203.00
2023-05-19T07:39:07.364Z,95209.00
2023-05-19T07:40:07.385Z,95207.00
2023-05-19T07:41:07.424Z,95209.00
2023-05-19T07:42:07.456Z,95207.00
2023-05-19T07:43:07.469Z,95201.00
2023-05-19T07:44:07.600Z,95205.00
2023-05-19T07:45:07.583Z,95205.00
2023-05-19T07:46:07.749Z,95203.00
2023-05-19T07:47:07.677Z,95205.00
2023-05-19T07:48:07.803Z,95203.00
2023-05-19T07:49:07.813Z,95203.00
2023-05-19T07:50:07.854Z,95205.00
2023-05-19T07:51:07.918Z,95205.00
2023-05-19T07:52:07.984Z,95201.00
2023-05-19T07:53:08.047Z,95199.00
2023-05-19T07:54:08.061Z,95197.00
2023-05-19T07:55:08.163Z,95197.00
2023-05-19T07:56:08.219Z,95199.00
2023-05-19T07:57:08.254Z,95197.00
2023-05-19T07:58:08.328Z,95197.00
2023-05-19T07:59:08.382Z,95197.00
2023-05-19T08:00:08.426Z,95195.00
2023-05-19T08:01:08.458Z,95193.00
2023-05-19T08:02:08.662Z,95191.00
2023-05-19T08:03:08.685Z,95193.00
2023-05-19T08:04:11.075Z,95191.00
2023-05-19T08:05:08.615Z,95189.00
2023-05-19T08:06:08.592Z,95189.00
2023-05-19T08:07:08.744Z,95187.00
2023-05-19T08:08:08.586Z,95189.00
2023-05-19T08:09:08.598Z,95186.00
2023-05-19T08:10:08.571Z,95186.00
2023-05-19T08:11:08.577Z,95186.00
2023-05-19T08:12:08.564Z,95186.00
2023-05-19T08:13:08.541Z,95186.00
2023-05-19T08:14:08.551Z,95186.00
2023-05-19T08:15:08.570Z,95186.00
2023-05-19T08:16:08.616Z,95186.00
2023-05-19T08:17:08.560Z,95184.00
2023-05-19T08:18:08.539Z,95182.00
2023-05-19T08:19:08.602Z,95180.00
2023-05-19T08:20:08.624Z,95182.00
2023-05-19T08:21:08.488Z,95182.00
2023-05-19T08:22:08.742Z,95180.00
2023-05-19T08:23:08.491Z,95178.00
2023-05-19T08:24:08.481Z,95178.00
2023-05-19T08:25:08.467Z,95174.00
2023-05-19T08:26:08.476Z,95178.00
2023-05-19T08:27:08.480Z,95176.00
2023-05-19T08:28:08.540Z,95174.00
2023-05-19T08:29:08.583Z,95172.00
2023-05-19T08:30:08.698Z,95174.00
2023-05-19T08:31:08.716Z,95170.00
2023-05-19T08:32:10.355Z,95170.00
2023-05-19T08:33:08.845Z,95170.00
2023-05-19T08:34:08.761Z,95166.00
2023-05-19T08:35:08.726Z,95168.00
2023-05-19T08:36:08.758Z,95168.00
2023-05-19T08:37:08.757Z,95164.00
2023-05-19T08:38:08.759Z,95164.00
2023-05-19T08:39:08.697Z,95162.00
2023-05-19T08:40:08.720Z,95160.00
2023-05-19T08:41:08.755Z,95160.00
2023-05-19T08:42:08.741Z,95160.00
2023-05-19T08:43:08.699Z,95160.00
2023-05-19T08:44:08.661Z,95158.00
2023-05-19T08:45:08.712Z,95158.00
2023-05-19T08:46:08.713Z,95160.00
2023-05-19T08:47:08.802Z,95158.00
2023-05-19T08:48:08.727Z,95160.00
2023-05-19T08:49:08.614Z,95154.00
2023-05-19T08:50:08.613Z,95152.00
2023-05-19T08:51:08.626Z,95150.00
2023-05-19T08:52:08.726Z,95148.00
2023-05-19T08:53:18.103Z,95140.00
2023-05-19T08:54:09.620Z,95138.00
2023-05-19T08:55:08.618Z,95138.00
2023-05-19T08:56:08.583Z,95140.00
2023-05-19T08:57:08.598Z,95138.00
2023-05-19T08:58:08.555Z,95136.00
2023-05-19T08:59:08.562Z,95136.00
2023-05-19T09:00:08.570Z,95134.00
2023-05-19T09:01:08.613Z,95134.00
2023-05-19T09:02:08.626Z,95134.00
2023-05-19T09:04:08.815Z,95134.00
2023-05-19T09:05:08.808Z,95134.00
2023-05-19T09:06:08.851Z,95134.00
2023-05-19T09:07:08.650Z,95131.00
2023-05-19T09:08:08.657Z,95136.00
2023-05-19T09:09:08.675Z,95129.00
2023-05-19T09:10:08.679Z,95133.00
2023-05-19T09:11:08.669Z,95131.00
2023-05-19T09:12:08.624Z,95131.00
2023-05-19T09:13:08.625Z,95129.00
2023-05-19T09:14:08.624Z,95127.00
2023-05-19T09:15:08.607Z,95125.00
2023-05-19T09:16:08.707Z,95123.00
2023-05-19T09:17:08.714Z,95121.00
2023-05-19T09:18:08.640Z,95125.00
2023-05-19T09:19:08.587Z,95123.00
2023-05-19T09:20:08.598Z,95119.00
2023-05-19T09:21:08.580Z,95117.00
2023-05-19T09:22:08.579Z,95115.00
2023-05-19T09:23:08.549Z,95113.00
2023-05-19T09:24:08.525Z,95113.00
2023-05-19T09:25:08.530Z,95109.00
2023-05-19T09:26:08.497Z,95109.00
2023-05-19T09:27:08.521Z,95111.00
2023-05-19T09:28:08.481Z,95111.00
2023-05-19T09:29:08.485Z,95109.00
2023-05-19T09:30:08.494Z,95105.00
2023-05-19T09:31:08.533Z,95105.00
2023-05-19T09:32:08.785Z,95103.00
2023-05-19T09:33:08.495Z,95099.00
2023-05-19T09:34:08.481Z,95099.00
2023-05-19T09:35:08.426Z,95099.00
2023-05-19T09:36:08.595Z,95097.00
2023-05-19T09:37:08.452Z,95093.00
2023-05-19T09:38:08.443Z,95095.00
2023-05-19T09:39:08.457Z,95091.00
2023-05-19T09:40:08.477Z,95091.00
2023-05-19T09:41:08.408Z,95089.00
2023-05-19T09:42:08.510Z,95089.00
2023-05-19T09:43:08.534Z,95089.00
2023-05-19T09:44:08.544Z,95086.00
2023-05-19T09:45:08.665Z,95086.00
2023-05-19T09:46:09.536Z,95082.00
2023-05-19T09:47:08.729Z,95084.00
2023-05-19T09:48:08.814Z,95084.00
2023-05-19T09:49:08.797Z,95082.00
2023-05-19T09:50:08.860Z,95078.00
2023-05-19T09:51:08.913Z,95076.00
2023-05-19T09:52:09.998Z,95076.00
2023-05-19T09:53:09.026Z,95076.00
2023-05-19T09:54:09.051Z,95074.00
2023-05-19T09:55:09.086Z,95074.00
2023-05-19T09:56:09.140Z,95078.00
2023-05-19T09:57:09.258Z,95074.00
2023-05-19T09:58:10.393Z,95072.00
2023-05-19T09:59:09.223Z,95070.00
2023-05-19T10:00:09.212Z,95062.00
2023-05-19T10:01:09.210Z,95062.00
2023-05-19T10:02:09.245Z,95058.00
2023-05-19T10:03:09.268Z,95054.00
2023-05-19T10:04:09.195Z,95052.00
2023-05-19T10:05:09.254Z,95048.00
2023-05-19T10:06:09.212Z,95046.00
2023-05-19T10:07:09.180Z,95042.00
2023-05-19T10:08:09.196Z,95040.00
2023-05-19T10:09:09.200Z,95044.00
2023-05-19T10:10:09.130Z,95042.00
2023-05-19T10:11:09.121Z,95040.00
2023-05-19T10:12:09.150Z,95040.00
2023-05-19T10:13:09.095Z,95039.00
2023-05-19T10:14:09.108Z,95035.00
2023-05-19T10:15:09.139Z,95033.00
2023-05-19T10:16:09.122Z,95031.00
2023-05-19T10:17:09.142Z,95031.00
2023-05-19T10:18:09.163Z,95033.00
2023-05-19T10:19:09.167Z,95033.00
2023-05-19T10:20:09.046Z,95029.00
2023-05-19T10:21:09.066Z,95029.00
2023-05-19T10:22:09.086Z,95029.00
2023-05-19T10:23:09.018Z,95027.00
2023-05-19T10:24:10.448Z,95025.00
2023-05-19T10:25:09.011Z,95025.00
2023-05-19T10:26:09.045Z,95023.00
2023-05-19T10:27:09.052Z,95019.00
2023-05-19T10:28:09.084Z,95017.00
2023-05-19T10:29:09.121Z,95017.00
2023-05-19T10:30:11.474Z,95017.00
2023-05-19T10:31:09.161Z,95015.00
2023-05-19T10:32:09.340Z,95013.00
2023-05-19T10:33:09.199Z,95015.00
2023-05-19T10:34:09.113Z,95013.00
2023-05-19T10:35:09.121Z,95011.00
2023-05-19T10:36:09.114Z,95007.00
2023-05-19T10:37:09.102Z,95007.00
2023-05-19T10:38:09.104Z,95005.00
2023-05-19T10:39:09.074Z,94999.00
2023-05-19T10:40:09.089Z,94993.00
2023-05-19T10:41:09.074Z,94992.00
2023-05-19T10:42:09.078Z,94995.00
2023-05-19T10:43:09.068Z,94997.00
2023-05-19T10:44:09.063Z,94995.00
2023-05-19T10:45:09.077Z,94995.00
2023-05-19T10:46:09.061Z,94990.00
2023-05-19T10:47:09.089Z,94992.00
2023-05-19T10:48:09.071Z,94988.00
2023-05-19T10:49:09.028Z,94988.00
2023-05-19T10:50:09.019Z,94988.00
2023-05-19T10:51:09.013Z,94988.00
2023-05-19T10:52:09.026Z,94986.00
2023-05-19T10:53:09.036Z,94986.00
2023-05-19T10:54:09.406Z,94988.00
2023-05-19T10:55:09.032Z,94986.00
2023-05-19T10:56:09.016Z,94984.00
2023-05-19T10:57:09.313Z,94984.00
2023-05-19T10:58:08.955Z,94982.00
2023-05-19T10:59:08.948Z,94974.00
2023-05-19T11:00:08.981Z,94978.00
2023-05-19T11:01:08.934Z,94976.00
2023-05-19T11:02:09.041Z,94976.00
2023-05-19T11:03:08.946Z,94974.00
2023-05-19T11:04:09.015Z,94974.00
2023-05-19T11:05:09.068Z,94974.00
2023-05-19T11:06:08.916Z,94970.00
2023-05-19T11:07:08.925Z,94970.00
2023-05-19T11:08:08.889Z,94966.00
2023-05-19T11:09:08.896Z,94968.00
2023-05-19T11:10:08.909Z,94970.00
2023-05-19T11:11:08.866Z,94970.00
2023-05-19T11:12:08.922Z,94972.00
2023-05-19T11:13:08.872Z,94972.00
2023-05-19T11:14:08.850Z,94974.00
2023-05-19T11:15:08.883Z,94972.00
2023-05-19T11:16:08.885Z,94970.00
2023-05-19T11:17:09.305Z,94970.00
2023-05-19T11:18:08.848Z,94966.00
2023-05-19T11:19:08.801Z,94970.00
2023-05-19T11:20:08.891Z,94972.00
2023-05-19T11:21:08.989Z,94966.00
2023-05-19T11:22:09.342Z,94968.00
2023-05-19T11:23:09.098Z,94964.00
2023-05-19T11:24:08.994Z,94962.00
2023-05-19T11:25:09.072Z,94960.00
2023-05-19T11:26:09.065Z,94960.00
2023-05-19T11:27:09.111Z,94960.00
2023-05-19T11:28:09.165Z,94954.00
2023-05-19T11:29:09.192Z,94952.00
2023-05-19T11:30:09.229Z,94952.00
2023-05-19T11:31:09.285Z,94950.00
2023-05-19T11:32:09.347Z,94950.00
2023-05-19T11:33:09.341Z,94946.00
2023-05-19T11:34:09.396Z,94946.00
2023-05-19T11:35:09.392Z,94942.00
2023-05-19T11:36:09.407Z,94938.00
2023-05-19T11:37:09.505Z,94938.00
2023-05-19T11:38:09.539Z,94938.00
2023-05-19T11:39:09.565Z,94938.00
2023-05-19T11:40:09.646Z,94937.00
2023-05-19T11:41:09.626Z,94933.00
2023-05-19T11:42:09.630Z,94933.00
2023-05-19T11:43:09.724Z,94931.00
2023-05-19T11:44:09.730Z,94927.00
2023-05-19T11:45:09.736Z,94927.00
2023-05-19T11:46:09.896Z,94925.00